UHWW 171730Z 08004MPS 9999 NSC 08/05 Q1012 R25L/0///70 NOSIG RMK QFE758
QNH:(hPa/inHg/mmHg)1012 / 29.88 / 759
QFE:(hPa/inHg/mmHg)1010 / 29.82 / 757
Temperature8
Dew Point5
Visibility> 10000
Weather
Cloud Cover
Transition Height1800 m./6000 ft.
Transition LevelFL80
SQUAWK